Time;durP1;ratioP1;P1;durP2;ratioP2;P2;SDS_P1;SDS_P2;PMS_P1;PMS_P2;Temp;Humidity;BMP_temperature;BMP_pressure;BME280_temperature;BME280_humidity;BME280_pressure;Samples;Min_cycle;Max_cycle;Signal;HPM_P1;HPM_P2
2022/12/01 00:00:39;;;;;;;;;;;;;;;18.27;59.45;102126.02;2312301;77;51428;-76
2022/12/01 00:03:41;;;;;;;;;;;;;;;18.24;59.47;102116.42;2312293;77;51573;-76
2022/12/01 00:06:42;;;;;;;;;;;;;;;18.20;59.51;102115.52;2312309;77;51571;-75
2022/12/01 00:13:04;;;;;;;;;;;;;;;18.16;59.61;102120.80;2288847;77;22212;-77
2022/12/01 00:16:10;;;;;;;;;;;;;;;18.21;59.62;102122.55;2312027;77;51478;-78
2022/12/01 00:19:11;;;;;;;;;;;;;;;18.27;59.48;102113.95;2310658;77;51500;-77
2022/12/01 00:22:13;;;;;;;;;;;;;;;18.33;59.35;102113.86;2312262;77;51491;-76
2022/12/01 00:25:15;;;;;;;;;;;;;;;18.32;59.33;102116.20;2284265;77;50340;-77
2022/12/01 00:28:17;;;;;;;;;;;;;;;18.30;59.29;102117.67;2312271;77;51449;-76
2022/12/01 00:31:18;;;;;;;;;;;;;;;18.29;59.33;102117.34;2312327;77;51401;-77
2022/12/01 00:34:21;;;;;;;;;;;;;;;18.27;59.35;102117.97;2258784;77;49582;-76
2022/12/01 00:37:23;;;;;;;;;;;;;;;18.24;59.35;102116.93;2312168;77;50684;-76
2022/12/01 00:40:25;;;;;;;;;;;;;;;18.22;59.36;102114.88;2312164;77;51523;-76
2022/12/01 00:43:26;;;;;;;;;;;;;;;18.19;59.36;102128.08;2284247;77;51442;-76
2022/12/01 00:46:28;;;;;;;;;;;;;;;18.16;59.43;102120.33;2259225;77;52924;-76
2022/12/01 00:49:29;;;;;;;;;;;;;;;18.14;59.50;102122.80;2312258;77;50284;-77
2022/12/01 00:52:31;;;;;;;;;;;;;;;18.16;59.51;102120.33;2312177;77;50291;-77
2022/12/01 00:55:32;;;;;;;;;;;;;;;18.22;59.39;102126.44;2312154;77;51432;-77
2022/12/01 00:58:34;;;;;;;;;;;;;;;18.30;59.27;102123.03;2284026;77;49620;-77
2022/12/01 01:01:36;;;;;;;;;;;;;;;18.34;59.15;102122.23;2277852;77;51513;-76
2022/12/01 01:04:37;;;;;;;;;;;;;;;18.34;59.09;102124.45;2251622;79;50199;-76
2022/12/01 01:07:39;;;;;;;;;;;;;;;18.32;59.09;102126.42;2252037;79;50705;-77
2022/12/01 01:10:41;;;;;;;;;;;;;;;18.29;59.07;102122.70;2250660;79;51269;-77
2022/12/01 01:13:43;;;;;;;;;;;;;;;18.27;59.11;102123.33;2225924;79;51158;-76
2022/12/01 01:16:44;;;;;;;;;;;;;;;18.24;59.14;102137.86;2248643;79;50779;-77
2022/12/01 01:19:46;;;;;;;;;;;;;;;18.21;59.15;102133.27;2241466;79;51424;-77
2022/12/01 01:22:47;;;;;;;;;;;;;;;18.20;59.16;102136.95;2241335;79;51707;-75
2022/12/01 01:25:49;;;;;;;;;;;;;;;18.16;59.19;102133.73;2210411;79;52418;-76
2022/12/01 01:28:51;;;;;;;;;;;;;;;18.13;59.32;102131.31;2241416;79;51490;-76
2022/12/01 01:31:52;;;;;;;;;;;;;;;18.16;59.29;102139.55;2234943;79;51504;-77
2022/12/01 01:34:54;;;;;;;;;;;;;;;18.21;59.17;102131.46;2241351;79;51544;-76
2022/12/01 01:37:56;;;;;;;;;;;;;;;18.29;59.03;102140.11;2234729;79;51281;-75
2022/12/01 01:40:57;;;;;;;;;;;;;;;18.31;58.97;102139.45;2234844;79;51431;-76
2022/12/01 01:44:01;;;;;;;;;;;;;;;18.31;58.91;102131.41;2241254;79;51563;-77
2022/12/01 01:47:03;;;;;;;;;;;;;;;18.29;58.93;102138.78;2241380;79;52204;-76
2022/12/01 01:50:07;;;;;;;;;;;;;;;18.26;58.94;102139.04;2234679;79;52517;-77
2022/12/01 01:53:10;;;;;;;;;;;;;;;18.24;58.96;102143.22;2241333;79;50776;-77
2022/12/01 01:56:12;;;;;;;;;;;;;;;18.22;58.98;102138.50;2241320;79;50476;-77
2022/12/01 01:59:14;;;;;;;;;;;;;;;18.18;58.98;102140.27;2235008;79;51420;-76
2022/12/01 02:02:16;;;;;;;;;;;;;;;18.18;59.01;102141.59;2241437;79;51212;-75
2022/12/01 02:05:19;;;;;;;;;;;;;;;18.13;59.09;102134.48;2241307;79;50681;-76
2022/12/01 02:08:21;;;;;;;;;;;;;;;18.12;59.17;102127.45;2240888;79;50457;-76
2022/12/01 02:11:47;;;;;;;;;;;;;;;18.15;59.14;102128.00;2241339;79;51564;-76
2022/12/01 02:14:59;;;;;;;;;;;;;;;18.21;59.00;102122.08;2241821;79;22330;-78
2022/12/01 02:18:10;;;;;;;;;;;;;;;18.29;58.85;102125.37;2243406;79;22323;-78
2022/12/01 02:21:19;;;;;;;;;;;;;;;18.30;58.70;102117.67;2243146;79;22377;-78
2022/12/01 02:24:45;;;;;;;;;;;;;;;18.29;58.68;102113.32;2243273;79;50773;-77
2022/12/01 02:28:00;;;;;;;;;;;;;;;18.27;58.71;102115.30;2243462;79;21798;-78
2022/12/01 02:31:06;;;;;;;;;;;;;;;18.23;58.74;102116.56;2229921;79;22380;-77
2022/12/01 02:34:28;;;;;;;;;;;;;;;18.20;58.78;102116.86;2242618;79;22118;-78
2022/12/01 02:37:38;;;;;;;;;;;;;;;18.19;58.72;102126.73;2237163;79;21787;-78
2022/12/01 02:40:56;;;;;;;;;;;;;;;18.16;58.75;102115.44;2214234;79;51120;-77
2022/12/01 02:44:05;;;;;;;;;;;;;;;18.11;58.89;102113.69;2243451;79;21994;-77
2022/12/01 02:47:09;;;;;;;;;;;;;;;18.09;58.94;102111.67;2242456;79;22432;-78
2022/12/01 02:50:20;;;;;;;;;;;;;;;18.13;58.89;102109.88;2243520;79;50357;-79
2022/12/01 02:53:22;;;;;;;;;;;;;;;18.19;58.77;102111.16;2213730;79;51473;-78
2022/12/01 02:56:23;;;;;;;;;;;;;;;18.27;58.63;102115.30;2243061;79;50416;-78
2022/12/01 02:59:38;;;;;;;;;;;;;;;18.28;58.52;102120.98;2243028;79;51450;-78
2022/12/01 03:02:50;;;;;;;;;;;;;;;18.27;58.51;102118.81;2165970;81;21900;-78
2022/12/01 03:06:13;;;;;;;;;;;;;;;18.26;58.52;102116.27;2168851;82;50716;-78
2022/12/01 03:09:28;;;;;;;;;;;;;;;18.25;58.52;102117.27;2104737;84;22297;-79
2022/12/01 03:12:40;;;;;;;;;;;;;;;18.20;58.58;102107.48;2104547;84;21938;-79
2022/12/01 03:15:59;;;;;;;;;;;;;;;18.18;58.59;102112.13;2104472;83;22421;-79
2022/12/01 03:19:04;;;;;;;;;;;;;;;18.16;58.62;102110.09;2105030;82;22452;-79
2022/12/01 03:22:07;;;;;;;;;;;;;;;18.14;58.64;102108.07;2106624;84;22047;-79
2022/12/01 03:25:16;;;;;;;;;;;;;;;18.10;58.73;102109.34;2105651;84;50677;-78
2022/12/01 03:28:22;;;;;;;;;;;;;;;18.10;58.76;102112.85;2106252;84;22607;-78
2022/12/01 03:31:27;;;;;;;;;;;;;;;18.16;58.63;102111.42;2105351;84;50155;-78
2022/12/01 03:34:36;;;;;;;;;;;;;;;18.24;58.52;102115.59;2106627;84;50647;-78
2022/12/01 03:37:42;;;;;;;;;;;;;;;18.28;58.33;102111.11;2106495;84;50833;-78
2022/12/01 03:40:44;;;;;;;;;;;;;;;18.28;58.32;102108.93;2150705;82;51478;-78
2022/12/01 03:43:47;;;;;;;;;;;;;;;18.27;58.33;102112.61;2149870;82;51773;-78
2022/12/01 03:46:50;;;;;;;;;;;;;;;18.24;58.24;102113.75;2201993;80;51538;-78
2022/12/01 03:49:52;;;;;;;;;;;;;;;18.21;58.25;102111.83;2225604;80;50406;-78
2022/12/01 03:53:01;;;;;;;;;;;;;;;18.18;58.21;102110.79;2225518;80;50657;-78
2022/12/01 03:56:03;;;;;;;;;;;;;;;18.16;58.16;102121.67;2216850;80;52592;-78
2022/12/01 03:59:04;;;;;;;;;;;;;;;18.14;58.17;102124.14;2225895;80;50646;-78
2022/12/01 04:02:06;;;;;;;;;;;;;;;18.10;58.32;102121.39;2225886;80;50720;-78
2022/12/01 04:05:11;;;;;;;;;;;;;;;18.07;58.38;102118.50;2225605;80;50669;-78
2022/12/01 04:08:13;;;;;;;;;;;;;;;18.10;58.25;102123.56;2172159;80;51171;-78
2022/12/01 04:14:34;;;;;;;;;;;;;;;18.23;57.93;102120.58;2264133;78;22626;-78
2022/12/01 04:17:35;;;;;;;;;;;;;;;18.27;57.81;102132.70;2234288;76;52311;-76
2022/12/01 04:20:37;;;;;;;;;;;;;;;18.26;57.83;102127.85;2282897;77;51568;-77
2022/12/01 04:26:56;;;;;;;;;;;;;;;18.22;57.83;102134.98;2210341;79;23332;-76
2022/12/01 04:29:58;;;;;;;;;;;;;;;18.18;57.85;102131.72;2210008;79;50086;-78
2022/12/01 04:33:00;;;;;;;;;;;;;;;18.17;57.83;102126.53;2236579;79;51538;-77
2022/12/01 04:36:02;;;;;;;;;;;;;;;18.14;57.81;102126.32;2262762;78;50733;-78
2022/12/01 04:39:04;;;;;;;;;;;;;;;18.11;57.86;102125.27;2244177;79;51435;-77
2022/12/01 04:42:06;;;;;;;;;;;;;;;18.08;58.03;102128.72;2244612;79;50565;-79
2022/12/01 04:45:08;;;;;;;;;;;;;;;18.03;58.09;102125.99;2236566;79;51204;-79
2022/12/01 04:48:09;;;;;;;;;;;;;;;18.09;58.00;102132.61;2261063;78;50597;-79
2022/12/01 04:51:11;;;;;;;;;;;;;;;18.15;57.84;102134.70;2233833;79;51039;-78
2022/12/01 04:54:13;;;;;;;;;;;;;;;18.22;57.68;102133.64;2241294;79;50714;-78
2022/12/01 04:57:14;;;;;;;;;;;;;;;18.27;57.54;102143.43;2215803;79;52257;-78
2022/12/01 05:00:16;;;;;;;;;;;;;;;18.27;57.53;102148.78;2254885;77;50241;-78
2022/12/01 05:03:18;;;;;;;;;;;;;;;18.25;57.58;102149.42;2308006;77;51493;-78
2022/12/01 05:06:21;;;;;;;;;;;;;;;18.23;57.55;102154.06;2307979;77;50540;-77
2022/12/01 05:09:22;;;;;;;;;;;;;;;18.21;57.55;102149.34;2263475;77;52644;-77
2022/12/01 05:12:24;;;;;;;;;;;;;;;18.18;57.57;102146.95;2308343;77;50704;-78
2022/12/01 05:15:26;;;;;;;;;;;;;;;18.14;57.60;102146.41;2308547;77;51527;-78
2022/12/01 05:18:27;;;;;;;;;;;;;;;18.12;57.67;102144.36;2289184;76;50721;-78
2022/12/01 05:21:28;;;;;;;;;;;;;;;;;;2263912;77;51719;-78
2022/12/01 05:24:29;;;;;;;;;;;;;;;18.05;57.86;102148.59;2288918;77;51752;-79
2022/12/01 05:27:31;;;;;;;;;;;;;;;18.06;57.85;102160.52;2308403;77;51451;-78
2022/12/01 05:30:33;;;;;;;;;;;;;;;18.13;57.68;102159.44;2288874;77;51591;-79
2022/12/01 05:33:34;;;;;;;;;;;;;;;18.19;57.54;102159.38;2288958;77;52859;-79
2022/12/01 05:36:36;;;;;;;;;;;;;;;18.25;57.39;102164.99;2288843;77;51523;-78
2022/12/01 05:39:39;;;;;;;;;;;;;;;18.27;57.41;102160.84;2288753;77;50715;-78
2022/12/01 05:42:40;;;;;;;;;;;;;;;18.24;57.46;102161.98;2288818;77;50754;-78
2022/12/01 05:45:42;;;;;;;;;;;;;;;18.22;57.42;102167.12;2287620;77;49527;-78
2022/12/01 05:48:44;;;;;;;;;;;;;;;18.19;57.44;102166.08;2294498;77;50299;-78
2022/12/01 05:51:45;;;;;;;;;;;;;;;18.16;57.47;102167.21;2294318;77;51603;-78
2022/12/01 05:54:47;;;;;;;;;;;;;;;18.15;57.39;102167.34;2302320;77;50807;-78
2022/12/01 05:57:49;;;;;;;;;;;;;;;18.12;57.50;102160.94;2277900;77;50973;-79
2022/12/01 06:00:50;;;;;;;;;;;;;;;18.09;57.60;102167.42;2309506;77;50509;-79
2022/12/01 06:03:52;;;;;;;;;;;;;;;18.04;57.70;102163.83;2309590;77;51701;-79
2022/12/01 06:06:54;;;;;;;;;;;;;;;18.05;57.66;102174.88;2310892;77;50562;-79
2022/12/01 06:09:56;;;;;;;;;;;;;;;18.12;57.56;102167.63;2276865;77;51177;-77
2022/12/01 06:12:57;;;;;;;;;;;;;;;18.19;57.38;102166.08;2275451;77;50252;-74
2022/12/01 06:15:59;;;;;;;;;;;;;;;18.25;57.50;102162.81;2268684;77;50219;-75
2022/12/01 06:19:01;;;;;;;;;;;;;;;18.27;57.50;102166.20;2268629;78;51527;-75
2022/12/01 06:22:03;;;;;;;;;;;;;;;18.24;57.64;102165.16;2237508;78;52512;-76
2022/12/01 06:25:05;;;;;;;;;;;;;;;18.22;57.64;102168.47;2267651;78;51608;-76
2022/12/01 06:28:06;;;;;;;;;;;;;;;18.19;57.69;102172.28;2256645;77;51486;-75
2022/12/01 06:31:08;;;;;;;;;;;;;;;18.17;57.85;102170.73;2305755;77;51503;-76
2022/12/01 06:34:09;;;;;;;;;;;;;;;18.15;57.79;102172.20;2273257;77;49657;-76
2022/12/01 06:37:14;;;;;;;;;;;;;;;18.13;57.81;102183.55;2273477;77;51902;-75
2022/12/01 06:40:14;;;;;;;;;;;;;;;18.09;57.87;102182.16;2305761;77;22798;-75
2022/12/01 06:43:16;;;;;;;;;;;;;;;18.05;58.00;102186.09;2273443;77;51516;-75
2022/12/01 06:46:18;;;;;;;;;;;;;;;18.06;58.08;102184.62;2273186;77;50951;-75
2022/12/01 06:49:19;;;;;;;;;;;;;;;18.13;57.92;102186.72;2273545;77;51424;-75
2022/12/01 06:52:21;;;;;;;;;;;;;;;18.19;57.84;102187.52;2305684;76;50295;-75
2022/12/01 06:55:23;;;;;;;;;;;;;;;18.25;57.64;102188.27;2273392;77;50686;-76
2022/12/01 06:58:24;;;;;;;;;;;;;;;18.24;57.79;102196.80;2305744;77;51539;-75
2022/12/01 07:01:27;;;;;;;;;;;;;;;18.23;57.89;102188.40;2273445;77;51148;-75
2022/12/01 07:04:28;;;;;;;;;;;;;;;18.20;57.95;102187.85;2275740;77;50789;-75
2022/12/01 07:07:30;;;;;;;;;;;;;;;18.17;57.90;102188.98;2279846;77;50633;-76
2022/12/01 07:10:32;;;;;;;;;;;;;;;18.15;57.92;102186.94;2279902;77;49462;-75
2022/12/01 07:13:33;;;;;;;;;;;;;;;18.14;57.97;102188.44;2279743;77;50738;-75
2022/12/01 07:16:35;;;;;;;;;;;;;;;18.12;57.98;102188.56;2310229;77;50387;-76
2022/12/01 07:19:36;;;;;;;;;;;;;;;18.09;58.06;102194.72;2306105;77;50377;-76
2022/12/01 07:22:38;;;;;;;;;;;;;;;18.05;58.13;102194.13;2264459;77;51669;-76
2022/12/01 07:25:40;;;;;;;;;;;;;;;18.08;58.10;102186.30;2264785;77;50304;-75
2022/12/01 07:28:42;;;;;;;;;;;;;;;18.14;57.93;102192.45;2264806;77;51444;-75
2022/12/01 07:31:43;;;;;;;;;;;;;;;18.19;57.87;102198.23;2299514;77;51498;-75
2022/12/01 07:34:45;;;;;;;;;;;;;;;18.25;57.74;102211.88;2240169;77;50997;-76
2022/12/01 07:37:47;;;;;;;;;;;;;;;18.27;57.71;102209.08;2264787;77;51481;-76
2022/12/01 07:40:49;;;;;;;;;;;;;;;18.26;57.76;102207.36;2299583;77;50226;-76
2022/12/01 07:43:50;;;;;;;;;;;;;;;18.24;57.76;102210.20;2299512;77;51512;-75
2022/12/01 07:46:52;;;;;;;;;;;;;;;18.21;57.81;102205.61;2240522;77;52175;-76
2022/12/01 07:49:54;;;;;;;;;;;;;;;18.20;57.86;102213.30;2299596;77;50251;-75
2022/12/01 07:52:55;;;;;;;;;;;;;;;18.16;57.91;102203.84;2299675;77;51587;-77
2022/12/01 07:55:57;;;;;;;;;;;;;;;18.13;57.92;102220.21;2299815;77;51375;-77
2022/12/01 07:58:59;;;;;;;;;;;;;;;18.12;57.86;102222.05;2263921;77;52686;-76
2022/12/01 08:02:01;;;;;;;;;;;;;;;18.06;58.03;102219.95;2278760;77;51113;-76
2022/12/01 08:05:02;;;;;;;;;;;;;;;18.03;58.09;102221.08;2302167;77;51607;-76
2022/12/01 08:08:04;;;;;;;;;;;;;;;18.17;58.01;102221.63;2289891;77;50630;-76
2022/12/01 08:11:07;;;;;;;;;;;;;;;18.25;57.99;102218.58;2233477;77;49269;-75
2022/12/01 08:14:08;;;;;;;;;;;;;;;18.34;57.94;102219.58;2289699;77;51527;-78
2022/12/01 08:17:10;;;;;;;;;;;;;;;18.42;57.75;102220.17;2299762;77;51229;-77
2022/12/01 08:20:11;;;;;;;;;;;;;;;;;;2298679;77;50400;-77
2022/12/01 08:23:12;;;;;;;;;;;;;;;18.41;57.71;102222.52;2281910;77;50327;-77
2022/12/01 08:26:15;;;;;;;;;;;;;;;18.37;57.75;102227.80;2243024;78;49542;-77
2022/12/01 08:29:16;;;;;;;;;;;;;;;18.34;57.72;102226.28;2254685;78;51527;-77
2022/12/01 08:32:18;;;;;;;;;;;;;;;18.33;57.68;102225.91;2267535;78;51449;-77
2022/12/01 08:35:20;;;;;;;;;;;;;;;18.31;57.67;102231.89;2249060;78;49896;-77
2022/12/01 08:38:21;;;;;;;;;;;;;;;18.28;57.66;102228.17;2227867;78;49556;-77
2022/12/01 08:41:23;;;;;;;;;;;;;;;18.32;57.51;102228.25;2288166;78;50620;-77
2022/12/01 08:44:25;;;;;;;;;;;;;;;18.33;57.45;102227.75;2285463;78;51566;-77
2022/12/01 08:47:28;;;;;;;;;;;;;;;18.37;57.34;102223.30;2286677;76;51530;-75
2022/12/01 08:50:29;;;;;;;;;;;;;;;18.47;57.02;102217.44;2254754;77;52528;-75
2022/12/01 08:53:31;;;;;;;;;;;;;;;18.49;56.99;102222.13;2263598;78;50422;-75
2022/12/01 08:56:34;;;;;;;;;;;;;;;18.54;56.97;102227.06;2287830;78;51442;-75
2022/12/01 08:59:36;;;;;;;;;;;;;;;18.55;56.91;102230.59;2287082;77;51648;-76
2022/12/01 09:02:38;;;;;;;;;;;;;;;18.58;56.76;102228.48;2276125;77;49630;-76
2022/12/01 09:05:39;;;;;;;;;;;;;;;18.53;56.79;102229.41;2281396;78;50297;-75
2022/12/01 09:08:41;;;;;;;;;;;;;;;18.49;56.87;102232.02;2256998;78;50254;-74
2022/12/01 09:11:43;;;;;;;;;;;;;;;18.42;57.00;102230.42;2249844;79;49984;-76
2022/12/01 09:14:48;;;;;;;;;;;;;;;18.39;57.05;102229.34;2226528;79;50992;-76
2022/12/01 09:17:50;;;;;;;;;;;;;;;18.40;56.99;102237.75;2263943;77;50280;-75
2022/12/01 09:20:51;;;;;;;;;;;;;;;18.36;57.13;102243.03;2287676;78;50327;-75
2022/12/01 09:23:53;;;;;;;;;;;;;;;18.34;57.18;102237.47;2287602;78;50270;-76
2022/12/01 09:26:55;;;;;;;;;;;;;;;18.34;57.15;102233.45;2226364;79;49512;-74
2022/12/01 09:29:57;;;;;;;;;;;;;;;18.39;57.16;102230.69;2250204;78;51260;-76
2022/12/01 09:32:59;;;;;;;;;;;;;;;18.40;57.28;102233.73;2250129;78;51419;-75
2022/12/01 09:36:01;;;;;;;;;;;;;;;18.49;57.04;102230.17;2250152;78;50661;-74
2022/12/01 09:39:03;;;;;;;;;;;;;;;18.52;57.04;102225.52;2249684;79;51182;-75
2022/12/01 09:42:06;;;;;;;;;;;;;;;18.48;57.12;102227.16;2275181;76;52435;-75
2022/12/01 09:45:09;;;;;;;;;;;;;;;18.44;57.21;102235.62;2253105;78;50786;-76
2022/12/01 09:48:13;;;;;;;;;;;;;;;18.44;57.13;102227.58;2288098;78;50860;-77
2022/12/01 09:51:15;;;;;;;;;;;;;;;18.48;56.98;102227.16;2264053;78;50128;-76
2022/12/01 09:54:16;;;;;;;;;;;;;;;18.44;57.00;102228.42;2287915;78;51302;-77
2022/12/01 09:57:35;;;;;;;;;;;;;;;18.44;56.97;102222.22;2288110;78;50675;-78
2022/12/01 10:00:37;;;;;;;;;;;;;;;18.41;57.02;102227.38;2287413;78;50774;-75
2022/12/01 10:03:45;;;;;;;;;;;;;;;18.36;57.26;102225.61;2239809;78;52393;-76
2022/12/01 10:06:51;;;;;;;;;;;;;;;18.35;57.41;102227.12;2287347;77;50430;-76
2022/12/01 10:09:54;;;;;;;;;;;;;;;18.38;57.44;102222.30;2232512;78;51599;-76
2022/12/01 10:12:56;;;;;;;;;;;;;;;18.40;57.51;102220.33;2246042;79;51539;-76
2022/12/01 10:15:59;;;;;;;;;;;;;;;18.46;57.38;102210.87;2224719;79;50981;-77
2022/12/01 10:19:05;;;;;;;;;;;;;;;18.55;57.18;102210.48;2245841;78;54423;-76
2022/12/01 10:22:08;;;;;;;;;;;;;;;18.55;57.22;102209.14;2258043;78;52173;-76
2022/12/01 10:25:23;;;;;;;;;;;;;;;18.47;57.45;102214.75;2234308;78;51577;-75
2022/12/01 10:28:45;;;;;;;;;;;;;;;18.45;57.48;102207.34;2208931;78;51465;-75
2022/12/01 10:31:53;;;;;;;;;;;;;;;18.42;57.55;102213.47;2262013;78;51539;-76
2022/12/01 10:34:55;;;;;;;;;;;;;;;18.38;57.68;102215.61;2261902;78;50347;-75
2022/12/01 10:37:58;;;;;;;;;;;;;;;18.34;57.78;102216.03;2283516;77;50248;-76
2022/12/01 10:41:00;;;;;;;;;;;;;;;18.27;57.78;102206.39;2259029;77;49657;-76
2022/12/01 10:44:04;;;;;;;;;;;;;;;18.29;57.67;102199.06;2290085;77;50813;-76
2022/12/01 10:47:07;;;;;;;;;;;;;;;18.35;57.54;102205.18;2306635;77;50365;-77
2022/12/01 10:50:09;;;;;;;;;;;;;;;18.46;57.29;102199.64;2312049;77;50395;-77
2022/12/01 10:53:25;;;;;;;;;;;;;;;18.57;57.01;102195.94;2259478;77;51245;-77
2022/12/01 10:56:27;;;;;;;;;;;;;;;18.61;56.87;102195.17;2298529;77;50490;-77
2022/12/01 10:59:30;;;;;;;;;;;;;;;18.67;56.62;102189.22;2290677;77;50190;-78
2022/12/01 11:02:32;;;;;;;;;;;;;;;18.65;56.65;102183.16;2290402;77;50280;-78
2022/12/01 11:05:35;;;;;;;;;;;;;;;18.59;56.81;102189.11;2288726;77;51682;-78
2022/12/01 11:08:38;;;;;;;;;;;;;;;18.59;56.72;102177.05;2290264;77;51469;-78
2022/12/01 11:11:39;;;;;;;;;;;;;;;18.53;56.90;102178.98;2290049;77;51571;-78
2022/12/01 11:14:45;;;;;;;;;;;;;;;18.47;56.99;102177.23;2290069;77;51441;-78
2022/12/01 11:17:47;;;;;;;;;;;;;;;18.42;57.09;102180.84;2288902;77;50065;-78
2022/12/01 11:20:49;;;;;;;;;;;;;;;18.46;56.99;102188.92;2302461;77;50711;-77
2022/12/01 11:23:51;;;;;;;;;;;;;;;18.46;57.01;102182.22;2289353;77;51658;-77
2022/12/01 11:26:52;;;;;;;;;;;;;;;18.48;57.00;102184.27;2289955;77;50268;-77
2022/12/01 11:29:58;;;;;;;;;;;;;;;18.57;56.85;102182.55;2288331;77;51662;-77
2022/12/01 11:33:01;;;;;;;;;;;;;;;18.61;56.75;102173.23;2289948;77;50771;-77
2022/12/01 11:36:03;;;;;;;;;;;;;;;18.69;56.58;102177.36;2289810;77;51437;-77
2022/12/01 11:39:05;;;;;;;;;;;;;;;18.74;56.45;102170.22;2289912;77;50712;-78
2022/12/01 11:42:25;;;;;;;;;;;;;;;18.76;56.35;102168.78;2262882;77;52590;-77
2022/12/01 11:45:28;;;;;;;;;;;;;;;18.70;56.49;102169.69;2289774;77;51467;-77
2022/12/01 11:48:30;;;;;;;;;;;;;;;18.66;56.57;102173.64;2289937;77;51517;-77
2022/12/01 11:51:36;;;;;;;;;;;;;;;18.60;56.69;102166.66;2290057;77;50687;-77
2022/12/01 11:54:35;;;;;;;;;;;;;;;18.56;56.76;102174.66;2290032;77;22329;-77
2022/12/01 11:57:38;;;;;;;;;;;;;;;18.52;56.79;102174.59;2289969;77;51547;-77
2022/12/01 12:00:42;;;;;;;;;;;;;;;18.47;56.86;102180.38;2289846;77;51576;-78
2022/12/01 12:03:54;;;;;;;;;;;;;;;18.46;56.84;102171.50;2289791;77;51319;-78
2022/12/01 12:07:06;;;;;;;;;;;;;;;18.46;56.87;102167.98;2259049;77;52569;-77
2022/12/01 12:10:25;;;;;;;;;;;;;;;18.53;56.79;102174.95;2289889;77;51626;-77
2022/12/01 12:13:34;;;;;;;;;;;;;;;18.59;56.62;102169.00;2289594;77;50405;-77
2022/12/01 12:16:54;;;;;;;;;;;;;;;18.66;56.43;102165.59;2289930;77;50677;-77
2022/12/01 12:19:57;;;;;;;;;;;;;;;18.71;56.34;102165.16;2288350;77;51721;-77
2022/12/01 12:23:09;;;;;;;;;;;;;;;18.71;56.25;102163.82;2302692;77;51568;-77
2022/12/01 12:26:31;;;;;;;;;;;;;;;18.70;56.19;102158.09;2307985;77;51704;-76
2022/12/01 12:29:37;;;;;;;;;;;;;;;18.70;56.11;102162.11;2306930;77;52179;-77
2022/12/01 12:32:41;;;;;;;;;;;;;;;18.61;56.31;102163.84;2275465;77;52647;-77
2022/12/01 12:35:44;;;;;;;;;;;;;;;18.59;56.35;102163.64;2308048;77;50807;-77
2022/12/01 12:38:47;;;;;;;;;;;;;;;18.51;56.43;102157.67;2308094;77;50281;-76
2022/12/01 12:41:50;;;;;;;;;;;;;;;18.46;56.54;102160.78;2307965;77;50288;-76
2022/12/01 12:44:53;;;;;;;;;;;;;;;18.46;56.50;102162.63;2276386;77;52379;-76
2022/12/01 12:48:03;;;;;;;;;;;;;;;18.45;56.49;102156.42;2308025;77;51423;-76
2022/12/01 12:51:15;;;;;;;;;;;;;;;18.46;56.46;102163.46;2307700;77;50448;-77
2022/12/01 12:54:35;;;;;;;;;;;;;;;18.53;56.31;102161.05;2308028;77;50785;-76
2022/12/01 12:57:40;;;;;;;;;;;;;;;18.66;56.04;102156.71;2276684;77;51729;-77
2022/12/01 13:00:44;;;;;;;;;;;;;;;18.67;56.01;102159.22;2308242;77;51496;-77
2022/12/01 13:03:53;;;;;;;;;;;;;;;18.70;55.97;102155.41;2307241;77;51651;-76
2022/12/01 13:07:02;;;;;;;;;;;;;;;18.73;55.85;102156.48;2307831;77;51515;-76
2022/12/01 13:10:05;;;;;;;;;;;;;;;18.72;55.78;102154.77;2276624;77;51314;-77
2022/12/01 13:13:14;;;;;;;;;;;;;;;18.71;55.81;102151.75;2307891;77;51510;-77
2022/12/01 13:16:18;;;;;;;;;;;;;;;18.64;56.00;102156.01;2307616;77;50202;-76
2022/12/01 13:19:26;;;;;;;;;;;;;;;18.57;56.09;102152.22;2303300;77;50480;-75
2022/12/01 13:22:30;;;;;;;;;;;;;;;18.56;56.12;102154.05;2297407;76;51675;-76
2022/12/01 13:25:37;;;;;;;;;;;;;;;18.52;56.15;102155.83;2299820;77;50478;-76
2022/12/01 13:28:42;;;;;;;;;;;;;;;18.48;56.11;102153.45;2307731;77;51530;-76
2022/12/01 13:31:45;;;;;;;;;;;;;;;18.47;56.14;102152.23;2307716;77;51496;-75
2022/12/01 13:34:47;;;;;;;;;;;;;;;18.49;56.09;102155.13;2276001;77;52588;-75
2022/12/01 13:37:48;;;;;;;;;;;;;;;18.57;55.95;102157.58;2285116;77;51506;-75
2022/12/01 13:40:52;;;;;;;;;;;;;;;18.65;55.79;102153.66;2265245;78;50361;-76
2022/12/01 13:43:58;;;;;;;;;;;;;;;18.72;55.62;102156.11;2246631;78;50310;-77
2022/12/01 13:47:04;;;;;;;;;;;;;;;18.77;55.50;102155.70;2203110;78;50988;-75
2022/12/01 13:50:07;;;;;;;;;;;;;;;18.78;55.36;102148.87;2265273;78;50733;-76
2022/12/01 13:53:19;;;;;;;;;;;;;;;18.74;55.50;102155.98;2225909;78;50797;-76
2022/12/01 13:56:24;;;;;;;;;;;;;;;18.68;55.56;102162.78;2265342;78;51613;-75
2022/12/01 13:59:43;;;;;;;;;;;;;;;18.65;55.63;102155.87;2238679;78;51731;-75
2022/12/01 14:02:44;;;;;;;;;;;;;;;18.60;55.76;102154.59;2188186;81;50376;-76
2022/12/01 14:05:55;;;;;;;;;;;;;;;18.50;55.97;102152.81;2259229;78;50311;-76
2022/12/01 14:09:15;;;;;;;;;;;;;;;18.49;55.93;102148.42;2265563;78;24717;-75
2022/12/01 14:12:21;;;;;;;;;;;;;;;18.45;56.04;102147.04;2263467;78;52414;-76
2022/12/01 14:15:25;;;;;;;;;;;;;;;18.50;55.96;102151.47;2259666;78;50909;-75
2022/12/01 14:18:28;;;;;;;;;;;;;;;18.60;55.80;102142.53;2265169;78;50455;-75
2022/12/01 14:21:39;;;;;;;;;;;;;;;18.59;55.88;102140.86;2265176;78;50449;-74
2022/12/01 14:24:42;;;;;;;;;;;;;;;18.67;55.66;102142.30;2249987;78;51551;-75
2022/12/01 14:27:43;;;;;;;;;;;;;;;18.72;55.61;102142.20;2248421;78;49717;-75
2022/12/01 14:30:48;;;;;;;;;;;;;;;18.73;55.56;102143.07;2249843;79;51091;-74
2022/12/01 14:33:51;;;;;;;;;;;;;;;18.80;55.34;102148.20;2249847;79;51518;-74
2022/12/01 14:36:54;;;;;;;;;;;;;;;18.73;55.49;102148.44;2249946;78;51548;-75
2022/12/01 14:40:00;;;;;;;;;;;;;;;18.72;55.49;102149.41;2248581;78;49582;-76
2022/12/01 14:46:22;;;;;;;;;;;;;;;18.60;55.69;102147.89;2249111;78;22367;-75
2022/12/01 14:49:26;;;;;;;;;;;;;;;18.54;55.84;102149.33;2250043;78;50413;-75
2022/12/01 14:52:29;;;;;;;;;;;;;;;18.47;55.92;102150.42;2226324;79;51028;-76
2022/12/01 14:55:32;;;;;;;;;;;;;;;18.49;55.85;102141.72;2249916;79;51168;-76
2022/12/01 14:58:34;;;;;;;;;;;;;;;18.50;55.90;102143.43;2250018;78;51495;-76
2022/12/01 15:01:36;;;;;;;;;;;;;;;18.57;55.79;102142.83;2249954;79;51415;-76
2022/12/01 15:04:56;;;;;;;;;;;;;;;18.66;55.61;102141.97;2269764;78;52601;-76
2022/12/01 15:07:58;;;;;;;;;;;;;;;18.78;55.34;102137.27;2287902;78;51581;-75
2022/12/01 15:11:01;;;;;;;;;;;;;;;18.78;55.34;102138.14;2288425;78;51558;-76
2022/12/01 15:14:02;;;;;;;;;;;;;;;18.78;55.31;102140.83;2276880;78;51543;-76
2022/12/01 15:17:05;;;;;;;;;;;;;;;18.79;55.24;102134.95;2251996;78;52374;-74
2022/12/01 15:20:08;;;;;;;;;;;;;;;18.75;55.31;102129.03;2288143;78;50377;-75
2022/12/01 15:23:13;;;;;;;;;;;;;;;18.69;55.38;102127.75;2286648;77;51477;-77
2022/12/01 15:26:22;;;;;;;;;;;;;;;18.65;55.42;102133.08;2290635;78;50160;-75
2022/12/01 15:29:24;;;;;;;;;;;;;;;18.57;55.57;102140.16;2280856;78;51793;-75
2022/12/01 15:32:26;;;;;;;;;;;;;;;18.50;55.68;102140.75;2281469;78;50802;-76
2022/12/01 15:35:28;;;;;;;;;;;;;;;18.53;55.59;102136.09;2279287;78;51091;-75
2022/12/01 15:38:30;;;;;;;;;;;;;;;18.53;55.61;102133.41;2291729;78;51779;-75
2022/12/01 15:41:32;;;;;;;;;;;;;;;18.52;55.62;102129.86;2277620;77;50218;-76
2022/12/01 15:44:34;;;;;;;;;;;;;;;18.59;55.49;102124.27;2289046;77;50928;-77
2022/12/01 15:47:37;;;;;;;;;;;;;;;18.59;55.54;102120.25;2269499;78;50766;-77
2022/12/01 15:50:40;;;;;;;;;;;;;;;18.69;55.34;102134.96;2272248;78;50789;-77
2022/12/01 15:53:57;;;;;;;;;;;;;;;18.71;55.30;102135.16;2271175;78;51810;-75
2022/12/01 15:56:59;;;;;;;;;;;;;;;18.79;55.09;102135.80;2261258;78;50806;-77
2022/12/01 16:00:01;;;;;;;;;;;;;;;18.82;55.08;102132.81;2271078;78;50837;-76